Strona główna
METAR-TAF:

METAR-TAF

Lotnisko :

Linton-on-Ouse, Anglia

Szerokość geograficzna: 54-03N, Długość geograficzna: 001-15W, wysokość: 16 m

Aktualna obserwacja pogody

Raport powstał 59 minut temu, godzina 16:50 UTC
Wiatr 11 kt od zachód
Temperatura 20°C
Wilgotność 46%
Ciśnienie 1023 hPa
Widzialność 10 km lub więcej

METAR: EGXU 121650Z AUTO 26011KT 9999 NCD 20/08 Q1023

czas: 18:49 (17:49 UTC)


TAF: brakujący

Obserwacja i prognoza pogody dla ponad 4000 lotnisk (raport METAR i TAF).

Dostępne stacje oznaczono żółtymi i czerwonymi punktami na mapie.

Najedź kursorem aby zobaczyć nazwę stacji.

Kliknij aby zobaczyć obserwacje i prognozy pogody.

Aby zmienić mapę: kliknij na zielony przycisk z czarnym krzyżykiem, aby powiększyć; na zielony przycisk z myślnikiem, aby pomniejszyć; na zielone strzałki, aby przejść do map sąsiednich.


METAR-TAF: